Forks, WA (98331)

11:42 PM PST on February 10, 2016 (GMT -0800)
Quillayute | | Change Station
CLOSE
Current Station
Airport
Location: Quillayute,
Elevation: 194 ft
Nearby Weather Stations

Elev 194 ft 47.94 °N, 124.56 °W | Updated 7 minutes ago

Mostly Cloudy
Mostly Cloudy
46 °F
Feels Like 42 °F
N
7
Wind Variable Wind from NE

Today
High -- | Low -- °F
--% Chance of Precip.
Yesterday
High -- | Low -- °F
Precip. -- in
Pressure 30.26 in
Visibility 1.8 miles
Clouds Scattered Clouds 200 ft
Overcast 2400 ft
Windchill 42 °F
Dew Point 45 °F
Humidity 96%
Rainfall 0.45 in
Snow Depth Not available.
7:32 AM 5:32 PM
Waxing Crescent, 10% visible
SPECI KUIL 110735Z AUTO 05006KT 1 3/4SM BR SCT002 OVC024 08/07 A3026 RMK AO2 T00780072
Pressure 30.26 in
Visibility 1.8 miles
Clouds Scattered Clouds 200 ft
Overcast 2400 ft
Windchill 42 °F
Dew Point 45 °F
Humidity 96%
Rainfall 0.45 in
Snow Depth Not available.
7:32 AM 5:32 PM
Waxing Crescent, 10% visible
SPECI KUIL 110735Z AUTO 05006KT 1 3/4SM BR SCT002 OVC024 08/07 A3026 RMK AO2 T00780072

10-Day Weather Forecast

Almanac

Astronomy

Feb. 10, 2016 Rise Set
Actual Time
Civil Twilight
Nautical Twilight
Astronomical Twilight
Moon
Length of Visible Light
Length of Day
Tomorrow will be .
, % of the Moon is Illuminated

Today's Extremes

State Highs State Lows

Community

WunderPhotos

Upload Photos

1,892,030 photos uploaded!

WunderBlog® & News

Nearby

Air Quality

  Air Quality AQ Index Pollutant
Not available.

Snow Depth

Station Depth Elevation

Earthquake Activity

City Distance Mag. Time & Date
Minimum magnitude displayed is 2.5.

Coastal Water Temperatures

Place Temperature

Stations

Nearby Weather Stations

Station Location Temp. Windchill Dew Point Humidity Wind Precip. Elev Updated Type
                   

Watches & Warnings

There are currently no watches in effect.